sensor_id;sensor_type;location;lat;lon;timestamp;temperature;humidity
13086;DHT22;6609;49.882;8.664;2022-09-01T00:02:06;17.50;56.60
13086;DHT22;6609;49.882;8.664;2022-09-01T00:07:03;17.40;56.70
13086;DHT22;6609;49.882;8.664;2022-09-01T00:09:30;17.40;56.90
13086;DHT22;6609;49.882;8.664;2022-09-01T00:11:57;17.40;56.90
13086;DHT22;6609;49.882;8.664;2022-09-01T00:14:27;17.30;57.00
13086;DHT22;6609;49.882;8.664;2022-09-01T00:21:50;17.20;57.40
13086;DHT22;6609;49.882;8.664;2022-09-01T00:24:17;17.20;57.60
13086;DHT22;6609;49.882;8.664;2022-09-01T00:26:45;17.20;57.70
13086;DHT22;6609;49.882;8.664;2022-09-01T00:29:12;17.10;57.80
13086;DHT22;6609;49.882;8.664;2022-09-01T00:31:41;17.10;57.80
13086;DHT22;6609;49.882;8.664;2022-09-01T00:34:08;17.10;57.90
13086;DHT22;6609;49.882;8.664;2022-09-01T00:36:35;17.10;58.00
13086;DHT22;6609;49.882;8.664;2022-09-01T00:39:04;17.10;57.90
13086;DHT22;6609;49.882;8.664;2022-09-01T00:41:34;17.10;58.00
13086;DHT22;6609;49.882;8.664;2022-09-01T00:44:04;17.00;58.00
13086;DHT22;6609;49.882;8.664;2022-09-01T00:46:34;17.00;58.30
13086;DHT22;6609;49.882;8.664;2022-09-01T00:49:07;17.00;58.40
13086;DHT22;6609;49.882;8.664;2022-09-01T00:51:36;17.00;58.40
13086;DHT22;6609;49.882;8.664;2022-09-01T00:54:05;16.90;58.70
13086;DHT22;6609;49.882;8.664;2022-09-01T00:56:33;16.90;58.80
13086;DHT22;6609;49.882;8.664;2022-09-01T01:04:03;16.90;58.90
13086;DHT22;6609;49.882;8.664;2022-09-01T01:06:30;16.90;58.80
13086;DHT22;6609;49.882;8.664;2022-09-01T01:08:58;16.90;58.80
13086;DHT22;6609;49.882;8.664;2022-09-01T01:11:28;16.90;58.90
13086;DHT22;6609;49.882;8.664;2022-09-01T01:14:00;16.80;58.90
13086;DHT22;6609;49.882;8.664;2022-09-01T01:16:35;16.80;59.10
13086;DHT22;6609;49.882;8.664;2022-09-01T01:21:36;16.70;59.20
13086;DHT22;6609;49.882;8.664;2022-09-01T01:24:25;16.70;59.10
13086;DHT22;6609;49.882;8.664;2022-09-01T01:26:53;16.60;59.40
13086;DHT22;6609;49.882;8.664;2022-09-01T01:29:21;16.60;59.40
13086;DHT22;6609;49.882;8.664;2022-09-01T01:31:49;16.70;59.50
13086;DHT22;6609;49.882;8.664;2022-09-01T01:34:18;16.60;59.50
13086;DHT22;6609;49.882;8.664;2022-09-01T01:36:47;16.60;59.50
13086;DHT22;6609;49.882;8.664;2022-09-01T01:39:17;16.60;59.70
13086;DHT22;6609;49.882;8.664;2022-09-01T01:41:47;16.60;59.50
13086;DHT22;6609;49.882;8.664;2022-09-01T01:44:17;16.60;59.50
13086;DHT22;6609;49.882;8.664;2022-09-01T01:46:46;16.60;59.70
13086;DHT22;6609;49.882;8.664;2022-09-01T01:49:15;16.60;59.80
13086;DHT22;6609;49.882;8.664;2022-09-01T01:51:46;16.50;59.70
13086;DHT22;6609;49.882;8.664;2022-09-01T01:54:14;16.50;59.80
13086;DHT22;6609;49.882;8.664;2022-09-01T02:04:07;16.50;60.00
13086;DHT22;6609;49.882;8.664;2022-09-01T02:06:36;16.50;60.00
13086;DHT22;6609;49.882;8.664;2022-09-01T02:09:06;16.50;60.00
13086;DHT22;6609;49.882;8.664;2022-09-01T02:14:03;16.40;60.10
13086;DHT22;6609;49.882;8.664;2022-09-01T02:16:33;16.30;60.50
13086;DHT22;6609;49.882;8.664;2022-09-01T02:19:02;16.30;61.00
13086;DHT22;6609;49.882;8.664;2022-09-01T02:21:31;16.30;61.00
13086;DHT22;6609;49.882;8.664;2022-09-01T02:24:00;16.30;61.00
13086;DHT22;6609;49.882;8.664;2022-09-01T02:26:30;16.30;61.00
13086;DHT22;6609;49.882;8.664;2022-09-01T02:28:58;16.20;60.90
13086;DHT22;6609;49.882;8.664;2022-09-01T02:31:29;16.20;60.90
13086;DHT22;6609;49.882;8.664;2022-09-01T02:33:58;16.20;60.90
13086;DHT22;6609;49.882;8.664;2022-09-01T02:38:53;16.20;61.30
13086;DHT22;6609;49.882;8.664;2022-09-01T02:51:19;16.10;61.60
13086;DHT22;6609;49.882;8.664;2022-09-01T03:01:14;16.10;61.80
13086;DHT22;6609;49.882;8.664;2022-09-01T03:03:47;16.00;61.60
13086;DHT22;6609;49.882;8.664;2022-09-01T03:06:14;16.10;61.70
13086;DHT22;6609;49.882;8.664;2022-09-01T03:08:44;16.10;61.60
13086;DHT22;6609;49.882;8.664;2022-09-01T03:13:39;16.10;61.80
13086;DHT22;6609;49.882;8.664;2022-09-01T03:21:01;16.00;62.30
13086;DHT22;6609;49.882;8.664;2022-09-01T03:23:29;15.90;62.20
13086;DHT22;6609;49.882;8.664;2022-09-01T03:25:59;15.90;62.50
13086;DHT22;6609;49.882;8.664;2022-09-01T03:28:27;15.90;62.70
13086;DHT22;6609;49.882;8.664;2022-09-01T03:30:56;15.90;62.60
13086;DHT22;6609;49.882;8.664;2022-09-01T03:33:26;15.90;62.60
13086;DHT22;6609;49.882;8.664;2022-09-01T03:43:19;15.90;62.80
13086;DHT22;6609;49.882;8.664;2022-09-01T03:53:16;15.80;63.20
13086;DHT22;6609;49.882;8.664;2022-09-01T03:55:46;15.90;63.40
13086;DHT22;6609;49.882;8.664;2022-09-01T03:58:14;15.80;63.30
13086;DHT22;6609;49.882;8.664;2022-09-01T04:00:48;15.80;63.40
13086;DHT22;6609;49.882;8.664;2022-09-01T04:09:28;15.80;63.50
13086;DHT22;6609;49.882;8.664;2022-09-01T04:14:22;15.80;63.50
13086;DHT22;6609;49.882;8.664;2022-09-01T04:16:53;15.80;63.70
13086;DHT22;6609;49.882;8.664;2022-09-01T04:29:35;15.80;64.10
13086;DHT22;6609;49.882;8.664;2022-09-01T04:32:05;15.80;64.10
13086;DHT22;6609;49.882;8.664;2022-09-01T04:37:06;15.80;64.00
13086;DHT22;6609;49.882;8.664;2022-09-01T04:59:22;16.00;63.90
13086;DHT22;6609;49.882;8.664;2022-09-01T05:01:49;16.00;64.00
13086;DHT22;6609;49.882;8.664;2022-09-01T05:04:21;16.00;63.90
13086;DHT22;6609;49.882;8.664;2022-09-01T05:06:52;16.10;63.80
13086;DHT22;6609;49.882;8.664;2022-09-01T05:09:22;16.10;63.70
13086;DHT22;6609;49.882;8.664;2022-09-01T05:21:43;16.20;63.60
13086;DHT22;6609;49.882;8.664;2022-09-01T05:24:13;16.20;63.30
13086;DHT22;6609;49.882;8.664;2022-09-01T05:26:41;16.20;63.30
13086;DHT22;6609;49.882;8.664;2022-09-01T05:31:39;16.20;63.30
13086;DHT22;6609;49.882;8.664;2022-09-01T05:34:06;16.30;63.40
13086;DHT22;6609;49.882;8.664;2022-09-01T05:36:35;16.30;63.30
13086;DHT22;6609;49.882;8.664;2022-09-01T05:39:05;16.30;63.00
13086;DHT22;6609;49.882;8.664;2022-09-01T05:41:33;16.40;63.20
13086;DHT22;6609;49.882;8.664;2022-09-01T05:44:03;16.40;62.70
13086;DHT22;6609;49.882;8.664;2022-09-01T05:46:33;16.40;62.70
13086;DHT22;6609;49.882;8.664;2022-09-01T05:49:02;16.50;63.00
13086;DHT22;6609;49.882;8.664;2022-09-01T05:51:31;16.60;62.90
13086;DHT22;6609;49.882;8.664;2022-09-01T05:53:59;16.60;62.40
13086;DHT22;6609;49.882;8.664;2022-09-01T05:56:27;16.70;62.00
13086;DHT22;6609;49.882;8.664;2022-09-01T05:58:59;16.70;61.90
13086;DHT22;6609;49.882;8.664;2022-09-01T06:03:58;16.70;61.70
13086;DHT22;6609;49.882;8.664;2022-09-01T06:06:26;16.70;61.40
13086;DHT22;6609;49.882;8.664;2022-09-01T06:08:55;16.80;61.80
13086;DHT22;6609;49.882;8.664;2022-09-01T06:11:25;16.80;61.80
13086;DHT22;6609;49.882;8.664;2022-09-01T06:13:53;16.80;61.60
13086;DHT22;6609;49.882;8.664;2022-09-01T06:16:22;16.80;61.40
13086;DHT22;6609;49.882;8.664;2022-09-01T06:18:50;16.90;61.50
13086;DHT22;6609;49.882;8.664;2022-09-01T06:21:19;16.90;61.50
13086;DHT22;6609;49.882;8.664;2022-09-01T06:23:50;17.10;61.40
13086;DHT22;6609;49.882;8.664;2022-09-01T06:26:21;17.10;61.30
13086;DHT22;6609;49.882;8.664;2022-09-01T06:28:51;17.30;61.20
13086;DHT22;6609;49.882;8.664;2022-09-01T06:38:46;18.10;58.70
13086;DHT22;6609;49.882;8.664;2022-09-01T06:43:42;18.30;57.70
13086;DHT22;6609;49.882;8.664;2022-09-01T06:46:09;18.30;57.70
13086;DHT22;6609;49.882;8.664;2022-09-01T06:56:08;19.20;54.90
13086;DHT22;6609;49.882;8.664;2022-09-01T06:58:38;19.40;54.50
13086;DHT22;6609;49.882;8.664;2022-09-01T07:01:07;19.40;54.30
13086;DHT22;6609;49.882;8.664;2022-09-01T07:03:36;19.60;53.90
13086;DHT22;6609;49.882;8.664;2022-09-01T07:08:33;20.10;52.60
13086;DHT22;6609;49.882;8.664;2022-09-01T07:11:05;20.10;51.60
13086;DHT22;6609;49.882;8.664;2022-09-01T07:13:33;20.20;51.20
13086;DHT22;6609;49.882;8.664;2022-09-01T07:16:01;20.20;51.20
13086;DHT22;6609;49.882;8.664;2022-09-01T07:18:31;20.30;51.30
13086;DHT22;6609;49.882;8.664;2022-09-01T07:20:59;20.30;51.30
13086;DHT22;6609;49.882;8.664;2022-09-01T07:25:59;20.20;51.20
13086;DHT22;6609;49.882;8.664;2022-09-01T07:28:26;20.30;51.00
13086;DHT22;6609;49.882;8.664;2022-09-01T07:30:56;20.30;50.70
13086;DHT22;6609;49.882;8.664;2022-09-01T07:33:25;20.30;50.80
13086;DHT22;6609;49.882;8.664;2022-09-01T07:38:22;20.30;50.40
13086;DHT22;6609;49.882;8.664;2022-09-01T07:40:49;20.60;50.50
13086;DHT22;6609;49.882;8.664;2022-09-01T07:43:23;20.80;49.20
13086;DHT22;6609;49.882;8.664;2022-09-01T07:45:53;21.10;48.60
13086;DHT22;6609;49.882;8.664;2022-09-01T07:48:25;21.40;47.80
13086;DHT22;6609;49.882;8.664;2022-09-01T07:50:54;21.40;47.00
13086;DHT22;6609;49.882;8.664;2022-09-01T07:53:23;21.50;47.30
13086;DHT22;6609;49.882;8.664;2022-09-01T07:55:51;21.50;47.50
13086;DHT22;6609;49.882;8.664;2022-09-01T07:58:23;21.50;47.50
13086;DHT22;6609;49.882;8.664;2022-09-01T08:03:19;21.90;46.70
13086;DHT22;6609;49.882;8.664;2022-09-01T08:10:45;22.10;45.70
13086;DHT22;6609;49.882;8.664;2022-09-01T08:13:14;22.20;45.20
13086;DHT22;6609;49.882;8.664;2022-09-01T08:15:42;22.10;44.90
13086;DHT22;6609;49.882;8.664;2022-09-01T08:18:09;22.10;44.80
13086;DHT22;6609;49.882;8.664;2022-09-01T08:20:38;22.00;44.80
13086;DHT22;6609;49.882;8.664;2022-09-01T08:23:10;22.00;45.10
13086;DHT22;6609;49.882;8.664;2022-09-01T08:25:38;22.10;45.20
13086;DHT22;6609;49.882;8.664;2022-09-01T08:28:06;22.20;44.60
13086;DHT22;6609;49.882;8.664;2022-09-01T08:30:34;22.30;44.30
13086;DHT22;6609;49.882;8.664;2022-09-01T08:33:04;22.30;44.30
13086;DHT22;6609;49.882;8.664;2022-09-01T08:35:31;22.40;43.90
13086;DHT22;6609;49.882;8.664;2022-09-01T08:40:26;22.70;43.10
13086;DHT22;6609;49.882;8.664;2022-09-01T08:42:59;22.80;42.90
13086;DHT22;6609;49.882;8.664;2022-09-01T08:45:31;22.90;43.10
13086;DHT22;6609;49.882;8.664;2022-09-01T08:48:01;23.00;42.90
13086;DHT22;6609;49.882;8.664;2022-09-01T08:53:06;23.10;42.00
13086;DHT22;6609;49.882;8.664;2022-09-01T08:55:40;23.10;42.40
13086;DHT22;6609;49.882;8.664;2022-09-01T09:00:39;23.20;41.30
13086;DHT22;6609;49.882;8.664;2022-09-01T09:05:56;23.00;41.70
13086;DHT22;6609;49.882;8.664;2022-09-01T09:08:51;22.80;41.90
13086;DHT22;6609;49.882;8.664;2022-09-01T09:11:47;22.80;41.90
13086;DHT22;6609;49.882;8.664;2022-09-01T09:14:26;22.70;41.90
13086;DHT22;6609;49.882;8.664;2022-09-01T09:16:54;22.70;42.50
13086;DHT22;6609;49.882;8.664;2022-09-01T09:21:53;22.80;42.20
13086;DHT22;6609;49.882;8.664;2022-09-01T09:24:26;23.30;42.00
13086;DHT22;6609;49.882;8.664;2022-09-01T09:26:55;23.90;40.60
13086;DHT22;6609;49.882;8.664;2022-09-01T09:29:23;24.30;39.50
13086;DHT22;6609;49.882;8.664;2022-09-01T09:32:01;24.40;38.30
13086;DHT22;6609;49.882;8.664;2022-09-01T09:34:31;24.20;38.40
13086;DHT22;6609;49.882;8.664;2022-09-01T09:37:25;24.10;38.10
13086;DHT22;6609;49.882;8.664;2022-09-01T09:40:04;24.30;38.80
13086;DHT22;6609;49.882;8.664;2022-09-01T09:45:00;24.30;37.70
13086;DHT22;6609;49.882;8.664;2022-09-01T09:47:38;24.20;37.90
13086;DHT22;6609;49.882;8.664;2022-09-01T09:50:27;24.30;37.90
13086;DHT22;6609;49.882;8.664;2022-09-01T09:53:15;24.50;37.70
13086;DHT22;6609;49.882;8.664;2022-09-01T09:56:01;24.50;36.60
13086;DHT22;6609;49.882;8.664;2022-09-01T09:58:35;24.70;36.50
13086;DHT22;6609;49.882;8.664;2022-09-01T10:01:08;25.00;35.80
13086;DHT22;6609;49.882;8.664;2022-09-01T10:03:42;25.30;34.90
13086;DHT22;6609;49.882;8.664;2022-09-01T10:06:12;25.60;34.40
13086;DHT22;6609;49.882;8.664;2022-09-01T10:08:42;26.40;32.80
13086;DHT22;6609;49.882;8.664;2022-09-01T10:11:26;27.40;30.30
13086;DHT22;6609;49.882;8.664;2022-09-01T10:13:54;27.90;29.30
13086;DHT22;6609;49.882;8.664;2022-09-01T10:16:25;28.60;27.70
13086;DHT22;6609;49.882;8.664;2022-09-01T10:18:54;29.00;25.90
13086;DHT22;6609;49.882;8.664;2022-09-01T10:21:29;28.50;26.00
13086;DHT22;6609;49.882;8.664;2022-09-01T10:23:59;28.20;26.70
13086;DHT22;6609;49.882;8.664;2022-09-01T10:26:31;27.80;27.70
13086;DHT22;6609;49.882;8.664;2022-09-01T10:29:06;27.40;27.60
13086;DHT22;6609;49.882;8.664;2022-09-01T10:31:34;26.90;28.00
13086;DHT22;6609;49.882;8.664;2022-09-01T10:34:04;27.00;28.50
13086;DHT22;6609;49.882;8.664;2022-09-01T10:36:32;27.50;27.90
13086;DHT22;6609;49.882;8.664;2022-09-01T10:39:01;27.30;27.20
13086;DHT22;6609;49.882;8.664;2022-09-01T10:41:49;27.30;27.80
13086;DHT22;6609;49.882;8.664;2022-09-01T10:44:23;27.30;27.70
13086;DHT22;6609;49.882;8.664;2022-09-01T10:46:51;27.40;27.70
13086;DHT22;6609;49.882;8.664;2022-09-01T10:52:54;26.60;28.40
13086;DHT22;6609;49.882;8.664;2022-09-01T10:55:23;26.30;28.40
13086;DHT22;6609;49.882;8.664;2022-09-01T10:57:56;27.50;27.70
13086;DHT22;6609;49.882;8.664;2022-09-01T11:00:53;27.50;26.30
13086;DHT22;6609;49.882;8.664;2022-09-01T11:06:53;26.80;27.90
13086;DHT22;6609;49.882;8.664;2022-09-01T11:09:24;26.80;27.80
13086;DHT22;6609;49.882;8.664;2022-09-01T11:12:15;27.00;27.60
13086;DHT22;6609;49.882;8.664;2022-09-01T11:14:51;27.80;26.90
13086;DHT22;6609;49.882;8.664;2022-09-01T11:17:20;28.70;25.80
13086;DHT22;6609;49.882;8.664;2022-09-01T11:19:55;29.30;24.60
13086;DHT22;6609;49.882;8.664;2022-09-01T11:22:30;29.20;23.70
13086;DHT22;6609;49.882;8.664;2022-09-01T11:28:00;28.40;23.20
13086;DHT22;6609;49.882;8.664;2022-09-01T11:30:41;28.00;23.50
13086;DHT22;6609;49.882;8.664;2022-09-01T11:33:40;27.90;24.40
13086;DHT22;6609;49.882;8.664;2022-09-01T11:36:14;27.80;24.50
13086;DHT22;6609;49.882;8.664;2022-09-01T11:38:47;27.70;24.30
13086;DHT22;6609;49.882;8.664;2022-09-01T11:41:25;27.50;24.70
13086;DHT22;6609;49.882;8.664;2022-09-01T11:43:58;27.70;24.40
13086;DHT22;6609;49.882;8.664;2022-09-01T11:46:27;27.80;24.40
13086;DHT22;6609;49.882;8.664;2022-09-01T11:48:56;28.10;24.10
13086;DHT22;6609;49.882;8.664;2022-09-01T11:53:51;28.20;23.60
13086;DHT22;6609;49.882;8.664;2022-09-01T11:56:26;28.40;23.40
13086;DHT22;6609;49.882;8.664;2022-09-01T11:58:54;28.40;23.50
13086;DHT22;6609;49.882;8.664;2022-09-01T12:01:29;28.40;23.60
13086;DHT22;6609;49.882;8.664;2022-09-01T12:03:57;28.40;23.60
13086;DHT22;6609;49.882;8.664;2022-09-01T12:06:25;28.40;23.60
13086;DHT22;6609;49.882;8.664;2022-09-01T12:08:55;28.60;23.20
13086;DHT22;6609;49.882;8.664;2022-09-01T12:11:26;28.60;22.50
13086;DHT22;6609;49.882;8.664;2022-09-01T12:13:57;28.70;21.60
13086;DHT22;6609;49.882;8.664;2022-09-01T12:16:25;28.60;22.20
13086;DHT22;6609;49.882;8.664;2022-09-01T12:18:54;28.70;21.30
13086;DHT22;6609;49.882;8.664;2022-09-01T12:21:24;28.60;21.60
13086;DHT22;6609;49.882;8.664;2022-09-01T12:23:54;28.50;21.50
13086;DHT22;6609;49.882;8.664;2022-09-01T12:26:36;28.20;22.00
13086;DHT22;6609;49.882;8.664;2022-09-01T12:29:04;28.00;22.60
13086;DHT22;6609;49.882;8.664;2022-09-01T12:31:32;28.00;22.80
13086;DHT22;6609;49.882;8.664;2022-09-01T12:33:59;28.30;23.70
13086;DHT22;6609;49.882;8.664;2022-09-01T12:36:30;28.60;22.60
13086;DHT22;6609;49.882;8.664;2022-09-01T12:39:20;28.60;22.20
13086;DHT22;6609;49.882;8.664;2022-09-01T12:42:03;28.70;21.80
13086;DHT22;6609;49.882;8.664;2022-09-01T12:44:32;28.40;21.50
13086;DHT22;6609;49.882;8.664;2022-09-01T12:47:01;28.10;21.40
13086;DHT22;6609;49.882;8.664;2022-09-01T12:49:38;27.90;21.90
13086;DHT22;6609;49.882;8.664;2022-09-01T12:52:14;27.90;21.80
13086;DHT22;6609;49.882;8.664;2022-09-01T12:54:43;27.80;22.20
13086;DHT22;6609;49.882;8.664;2022-09-01T12:57:23;27.70;22.20
13086;DHT22;6609;49.882;8.664;2022-09-01T13:00:06;27.60;22.90
13086;DHT22;6609;49.882;8.664;2022-09-01T13:02:35;27.50;22.60
13086;DHT22;6609;49.882;8.664;2022-09-01T13:05:18;27.30;22.50
13086;DHT22;6609;49.882;8.664;2022-09-01T13:07:45;27.20;23.30
13086;DHT22;6609;49.882;8.664;2022-09-01T13:10:11;27.10;23.20
13086;DHT22;6609;49.882;8.664;2022-09-01T13:12:41;27.00;23.50
13086;DHT22;6609;49.882;8.664;2022-09-01T13:15:09;27.10;23.30
13086;DHT22;6609;49.882;8.664;2022-09-01T13:17:36;27.10;23.00
13086;DHT22;6609;49.882;8.664;2022-09-01T13:20:03;27.10;23.30
13086;DHT22;6609;49.882;8.664;2022-09-01T13:27:25;27.40;22.20
13086;DHT22;6609;49.882;8.664;2022-09-01T13:29:53;27.40;22.10
13086;DHT22;6609;49.882;8.664;2022-09-01T13:32:21;27.50;22.70
13086;DHT22;6609;49.882;8.664;2022-09-01T13:34:49;27.50;22.70
13086;DHT22;6609;49.882;8.664;2022-09-01T13:39:43;27.40;23.10
13086;DHT22;6609;49.882;8.664;2022-09-01T13:42:11;27.40;23.30
13086;DHT22;6609;49.882;8.664;2022-09-01T13:47:07;27.20;23.30
13086;DHT22;6609;49.882;8.664;2022-09-01T13:49:33;27.30;23.40
13086;DHT22;6609;49.882;8.664;2022-09-01T13:54:27;27.30;22.70
13086;DHT22;6609;49.882;8.664;2022-09-01T13:56:54;27.40;22.80
13086;DHT22;6609;49.882;8.664;2022-09-01T14:01:47;27.40;23.00
13086;DHT22;6609;49.882;8.664;2022-09-01T14:04:15;27.40;22.90
13086;DHT22;6609;49.882;8.664;2022-09-01T14:06:44;27.40;22.80
13086;DHT22;6609;49.882;8.664;2022-09-01T14:16:33;27.30;22.90
13086;DHT22;6609;49.882;8.664;2022-09-01T14:21:28;27.20;22.90
13086;DHT22;6609;49.882;8.664;2022-09-01T14:23:55;27.20;22.50
13086;DHT22;6609;49.882;8.664;2022-09-01T14:28:49;27.00;22.50
13086;DHT22;6609;49.882;8.664;2022-09-01T14:31:17;26.90;22.60
13086;DHT22;6609;49.882;8.664;2022-09-01T14:33:44;26.80;22.80
13086;DHT22;6609;49.882;8.664;2022-09-01T14:36:17;26.80;22.60
13086;DHT22;6609;49.882;8.664;2022-09-01T14:41:13;26.70;23.40
13086;DHT22;6609;49.882;8.664;2022-09-01T14:43:41;26.70;23.10
13086;DHT22;6609;49.882;8.664;2022-09-01T14:46:09;26.60;22.90
13086;DHT22;6609;49.882;8.664;2022-09-01T14:48:38;26.60;24.10
13086;DHT22;6609;49.882;8.664;2022-09-01T14:51:05;26.60;23.90
13086;DHT22;6609;49.882;8.664;2022-09-01T14:58:29;26.50;22.90
13086;DHT22;6609;49.882;8.664;2022-09-01T15:00:56;26.50;23.00
13086;DHT22;6609;49.882;8.664;2022-09-01T15:05:51;26.40;23.00
13086;DHT22;6609;49.882;8.664;2022-09-01T15:08:19;26.30;23.00
13086;DHT22;6609;49.882;8.664;2022-09-01T15:10:46;26.40;23.70
13086;DHT22;6609;49.882;8.664;2022-09-01T15:20:39;26.30;23.90
13086;DHT22;6609;49.882;8.664;2022-09-01T15:23:14;26.20;23.50
13086;DHT22;6609;49.882;8.664;2022-09-01T15:33:05;26.20;23.00
13086;DHT22;6609;49.882;8.664;2022-09-01T15:35:32;26.20;22.90
13086;DHT22;6609;49.882;8.664;2022-09-01T15:42:55;26.10;24.20
13086;DHT22;6609;49.882;8.664;2022-09-01T15:50:21;26.10;23.20
13086;DHT22;6609;49.882;8.664;2022-09-01T15:55:19;26.10;23.20
13086;DHT22;6609;49.882;8.664;2022-09-01T15:57:46;26.10;23.10
13086;DHT22;6609;49.882;8.664;2022-09-01T16:00:14;26.00;23.50
13086;DHT22;6609;49.882;8.664;2022-09-01T16:02:41;26.00;23.60
13086;DHT22;6609;49.882;8.664;2022-09-01T16:05:10;25.90;23.00
13086;DHT22;6609;49.882;8.664;2022-09-01T16:10:07;25.90;23.30
13086;DHT22;6609;49.882;8.664;2022-09-01T16:12:39;25.80;23.20
13086;DHT22;6609;49.882;8.664;2022-09-01T16:15:09;25.70;23.40
13086;DHT22;6609;49.882;8.664;2022-09-01T16:17:49;25.70;23.20
13086;DHT22;6609;49.882;8.664;2022-09-01T16:20:21;25.60;23.50
13086;DHT22;6609;49.882;8.664;2022-09-01T16:22:53;25.60;23.50
13086;DHT22;6609;49.882;8.664;2022-09-01T16:25:26;25.60;23.20
13086;DHT22;6609;49.882;8.664;2022-09-01T16:27:55;25.60;23.00
13086;DHT22;6609;49.882;8.664;2022-09-01T16:30:24;25.50;23.10
13086;DHT22;6609;49.882;8.664;2022-09-01T16:35:27;25.40;23.30
13086;DHT22;6609;49.882;8.664;2022-09-01T16:38:08;25.40;23.30
13086;DHT22;6609;49.882;8.664;2022-09-01T16:45:52;25.20;23.30
13086;DHT22;6609;49.882;8.664;2022-09-01T16:48:24;25.10;23.30
13086;DHT22;6609;49.882;8.664;2022-09-01T16:51:00;25.10;23.50
13086;DHT22;6609;49.882;8.664;2022-09-01T16:53:42;25.10;23.40
13086;DHT22;6609;49.882;8.664;2022-09-01T16:56:14;25.00;23.70
13086;DHT22;6609;49.882;8.664;2022-09-01T17:01:35;24.90;24.20
13086;DHT22;6609;49.882;8.664;2022-09-01T17:06:44;24.90;24.20
13086;DHT22;6609;49.882;8.664;2022-09-01T17:11:49;24.90;24.80
13086;DHT22;6609;49.882;8.664;2022-09-01T17:14:22;24.80;24.50
13086;DHT22;6609;49.882;8.664;2022-09-01T17:24:34;24.50;25.10
13086;DHT22;6609;49.882;8.664;2022-09-01T17:29:40;24.40;25.30
13086;DHT22;6609;49.882;8.664;2022-09-01T17:37:22;24.30;25.50
13086;DHT22;6609;49.882;8.664;2022-09-01T17:45:02;24.10;25.70
13086;DHT22;6609;49.882;8.664;2022-09-01T17:47:42;24.10;25.80
13086;DHT22;6609;49.882;8.664;2022-09-01T17:52:50;23.90;26.00
13086;DHT22;6609;49.882;8.664;2022-09-01T18:00:21;23.80;26.50
13086;DHT22;6609;49.882;8.664;2022-09-01T18:05:38;23.60;26.60
13086;DHT22;6609;49.882;8.664;2022-09-01T18:10:46;23.50;27.10
13086;DHT22;6609;49.882;8.664;2022-09-01T18:18:26;23.40;27.10
13086;DHT22;6609;49.882;8.664;2022-09-01T18:20:56;23.40;27.30
13086;DHT22;6609;49.882;8.664;2022-09-01T18:23:29;23.30;27.50
13086;DHT22;6609;49.882;8.664;2022-09-01T18:33:28;23.10;28.50
13086;DHT22;6609;49.882;8.664;2022-09-01T18:38:37;23.00;28.70
13086;DHT22;6609;49.882;8.664;2022-09-01T18:48:51;22.70;29.50
13086;DHT22;6609;49.882;8.664;2022-09-01T18:53:55;22.60;30.00
13086;DHT22;6609;49.882;8.664;2022-09-01T18:56:29;22.50;30.50
13086;DHT22;6609;49.882;8.664;2022-09-01T18:59:07;22.40;31.00
13086;DHT22;6609;49.882;8.664;2022-09-01T19:01:39;22.30;31.30
13086;DHT22;6609;49.882;8.664;2022-09-01T19:06:47;22.00;31.70
13086;DHT22;6609;49.882;8.664;2022-09-01T19:09:23;21.90;32.00
13086;DHT22;6609;49.882;8.664;2022-09-01T19:12:05;21.80;32.10
13086;DHT22;6609;49.882;8.664;2022-09-01T19:14:41;21.80;32.60
13086;DHT22;6609;49.882;8.664;2022-09-01T19:17:23;21.70;32.90
13086;DHT22;6609;49.882;8.664;2022-09-01T19:19:52;21.60;33.50
13086;DHT22;6609;49.882;8.664;2022-09-01T19:22:41;21.60;33.90
13086;DHT22;6609;49.882;8.664;2022-09-01T19:25:13;21.50;33.90
13086;DHT22;6609;49.882;8.664;2022-09-01T19:28:03;21.50;34.40
13086;DHT22;6609;49.882;8.664;2022-09-01T19:30:32;21.40;34.60
13086;DHT22;6609;49.882;8.664;2022-09-01T19:33:03;21.30;34.60
13086;DHT22;6609;49.882;8.664;2022-09-01T19:38:01;21.30;35.30
13086;DHT22;6609;49.882;8.664;2022-09-01T19:40:35;21.30;35.10
13086;DHT22;6609;49.882;8.664;2022-09-01T19:43:05;21.30;34.90
13086;DHT22;6609;49.882;8.664;2022-09-01T19:48:09;21.20;35.20
13086;DHT22;6609;49.882;8.664;2022-09-01T20:03:21;21.10;36.00
13086;DHT22;6609;49.882;8.664;2022-09-01T20:05:53;21.10;36.30
13086;DHT22;6609;49.882;8.664;2022-09-01T20:08:25;21.10;36.60
13086;DHT22;6609;49.882;8.664;2022-09-01T20:10:58;21.10;36.80
13086;DHT22;6609;49.882;8.664;2022-09-01T20:23:43;20.80;37.60
13086;DHT22;6609;49.882;8.664;2022-09-01T20:33:45;20.60;39.00
13086;DHT22;6609;49.882;8.664;2022-09-01T20:36:18;20.50;39.10
13086;DHT22;6609;49.882;8.664;2022-09-01T20:38:50;20.50;39.30
13086;DHT22;6609;49.882;8.664;2022-09-01T20:44:17;20.30;39.70
13086;DHT22;6609;49.882;8.664;2022-09-01T20:57:10;20.20;40.20
13086;DHT22;6609;49.882;8.664;2022-09-01T21:02:23;20.10;40.60
13086;DHT22;6609;49.882;8.664;2022-09-01T21:05:01;20.00;40.70
13086;DHT22;6609;49.882;8.664;2022-09-01T21:12:35;19.90;41.10
13086;DHT22;6609;49.882;8.664;2022-09-01T21:17:40;19.90;41.60
13086;DHT22;6609;49.882;8.664;2022-09-01T21:22:41;19.90;41.70
13086;DHT22;6609;49.882;8.664;2022-09-01T21:27:41;19.90;41.70
13086;DHT22;6609;49.882;8.664;2022-09-01T21:30:12;19.90;41.90
13086;DHT22;6609;49.882;8.664;2022-09-01T21:32:40;19.90;42.30
13086;DHT22;6609;49.882;8.664;2022-09-01T21:35:09;19.90;41.90
13086;DHT22;6609;49.882;8.664;2022-09-01T21:40:04;19.80;42.00
13086;DHT22;6609;49.882;8.664;2022-09-01T21:47:29;19.70;41.40
13086;DHT22;6609;49.882;8.664;2022-09-01T21:54:50;19.50;41.40
13086;DHT22;6609;49.882;8.664;2022-09-01T21:59:45;19.50;41.50
13086;DHT22;6609;49.882;8.664;2022-09-01T22:04:40;19.40;41.40
13086;DHT22;6609;49.882;8.664;2022-09-01T22:09:41;19.30;41.30
13086;DHT22;6609;49.882;8.664;2022-09-01T22:19:33;19.00;41.80
13086;DHT22;6609;49.882;8.664;2022-09-01T22:29:21;18.80;42.60
13086;DHT22;6609;49.882;8.664;2022-09-01T22:31:49;18.80;42.70
13086;DHT22;6609;49.882;8.664;2022-09-01T22:36:46;18.70;42.70
13086;DHT22;6609;49.882;8.664;2022-09-01T22:51:32;18.80;42.90
13086;DHT22;6609;49.882;8.664;2022-09-01T22:54:01;18.80;42.60
13086;DHT22;6609;49.882;8.664;2022-09-01T22:56:31;18.90;42.60
13086;DHT22;6609;49.882;8.664;2022-09-01T22:59:00;18.80;42.60
13086;DHT22;6609;49.882;8.664;2022-09-01T23:11:28;18.70;42.80
13086;DHT22;6609;49.882;8.664;2022-09-01T23:16:22;18.70;42.70
13086;DHT22;6609;49.882;8.664;2022-09-01T23:18:51;18.70;42.70
13086;DHT22;6609;49.882;8.664;2022-09-01T23:21:20;18.70;42.70
13086;DHT22;6609;49.882;8.664;2022-09-01T23:26:14;18.70;42.80
13086;DHT22;6609;49.882;8.664;2022-09-01T23:33:39;18.50;43.30
13086;DHT22;6609;49.882;8.664;2022-09-01T23:38:35;18.40;43.40
13086;DHT22;6609;49.882;8.664;2022-09-01T23:43:31;18.40;43.60
13086;DHT22;6609;49.882;8.664;2022-09-01T23:45:59;18.40;43.60
13086;DHT22;6609;49.882;8.664;2022-09-01T23:53:23;18.40;43.40
13086;DHT22;6609;49.882;8.664;2022-09-01T23:55:52;18.40;43.40
